Aviation Digital Data Service (ADDS)

Output produced by METARs form (1025 UTC 05 August 2015)
found at http://aviationweather.gov/adds/metars/
 
KORH 050538Z 0506/0606 28007KT P6SM SCT070 
     FM051300 27007KT P6SM SCT070 
     FM051700 27010KT P6SM BKN070 
     FM052300 29008KT P6SM SCT070